Terminal Aerodrome Forecast
Issued by NWS Sterling, VA

Current Version | Previous Version | Graphics & Text | Print | Product List | Glossary On
Versions: 1 2 3 4 5 6 7 8 9 10 11 12 13 14 15 16 17 18 19 20 21 22 23 24 25 26 27 28
000
FTUS41 KLWX 210500 RRA
TAFIAD
TAF
KIAD 210541Z 2106/2212 15005KT P6SM FEW040 OVC060
     FM210900 VRB03KT P6SM OVC035
     FM211500 11005KT P6SM SCT025 BKN050
     FM221000 00000KT P6SM BKN090=

USA.gov is the U.S. government's official web portal to all federal, state and local government web resources and services.